createdAt,value
2022-12-29T00:01:39.139Z,99359.28
2022-12-29T00:04:08.817Z,99360.38
2022-12-29T00:06:39.400Z,99340.16
2022-12-29T00:09:05.835Z,99344.47
2022-12-29T00:11:32.249Z,99356.09
2022-12-29T00:14:21.422Z,99346.66
2022-12-29T00:16:50.779Z,99356.66
2022-12-29T00:19:35.939Z,99350.19
2022-12-29T00:22:20.800Z,99348.03
2022-12-29T00:24:56.119Z,99347.53
2022-12-29T00:27:41.273Z,99344.63
2022-12-29T00:30:34.016Z,99335.91
2022-12-29T00:33:19.308Z,99344.34
2022-12-29T00:35:53.448Z,99351.91
2022-12-29T00:38:38.799Z,99347.63
2022-12-29T00:41:24.128Z,99356.53
2022-12-29T00:44:11.146Z,99338.47
2022-12-29T00:46:38.786Z,99326.66
2022-12-29T00:49:24.984Z,99326.34
2022-12-29T00:51:51.629Z,99327.75
2022-12-29T00:54:18.490Z,99335.56
2022-12-29T00:56:46.668Z,99326.69
2022-12-29T00:59:13.168Z,99332.09
2022-12-29T01:01:40.148Z,99331.28
2022-12-29T01:04:07.312Z,99331.56
2022-12-29T01:06:34.434Z,99317.25
2022-12-29T01:09:19.580Z,99314.81
2022-12-29T01:11:46.025Z,99295.16
2022-12-29T01:14:12.524Z,99309.72
2022-12-29T01:16:38.990Z,99294.88
2022-12-29T01:19:05.620Z,99319.13
2022-12-29T01:21:32.363Z,99304.88
2022-12-29T01:23:58.822Z,99285.19
2022-12-29T01:26:25.403Z,99290.56
2022-12-29T01:28:51.936Z,99285.72
2022-12-29T01:31:18.426Z,99274.94
2022-12-29T01:33:44.938Z,99279.78
2022-12-29T01:36:13.425Z,99277.63
2022-12-29T01:38:41.163Z,99287.59
2022-12-29T01:41:08.552Z,99270.63
2022-12-29T01:43:42.414Z,99261.44
2022-12-29T01:46:27.078Z,99259.31
2022-12-29T01:49:00.746Z,99265.53
2022-12-29T01:51:30.074Z,99253.38
2022-12-29T01:53:56.918Z,99253.91
2022-12-29T01:56:23.911Z,99255.00
2022-12-29T01:58:55.599Z,99237.22
2022-12-29T02:01:22.810Z,99244.75
2022-12-29T02:03:51.063Z,99230.72
2022-12-29T02:06:22.074Z,99223.19
2022-12-29T02:08:50.582Z,99213.50
2022-12-29T02:11:17.263Z,99213.50
2022-12-29T02:13:43.651Z,99227.53
2022-12-29T02:16:28.810Z,99209.97
2022-12-29T02:19:07.218Z,99202.69
2022-12-29T02:21:52.667Z,99202.44
2022-12-29T02:24:25.305Z,99187.59
2022-12-29T02:27:12.236Z,99208.09
2022-12-29T02:29:41.782Z,99206.75
2022-12-29T02:32:11.269Z,99220.47
2022-12-29T02:34:52.881Z,99207.56
2022-12-29T02:37:28.644Z,99210.78
2022-12-29T02:40:02.508Z,99210.53
2022-12-29T02:42:38.223Z,99213.75
2022-12-29T02:45:04.679Z,99212.13
2022-12-29T02:47:40.109Z,99235.88
2022-12-29T02:50:21.631Z,99203.78
2022-12-29T02:52:51.823Z,99203.25
2022-12-29T02:55:18.422Z,99200.00
2022-12-29T02:57:44.945Z,99196.22
2022-12-29T03:00:13.493Z,99204.31
2022-12-29T03:02:55.517Z,99233.72
2022-12-29T03:05:34.475Z,99209.72
2022-12-29T03:08:30.272Z,99210.78
2022-12-29T03:11:28.241Z,99207.59
2022-12-29T03:14:16.551Z,99192.19
2022-12-29T03:16:46.774Z,99198.13
2022-12-29T03:19:16.393Z,99204.34
2022-12-29T03:22:05.751Z,99193.84
2022-12-29T03:24:37.340Z,99202.19
2022-12-29T03:27:05.515Z,99198.97
2022-12-29T03:29:34.002Z,99195.72
2022-12-29T03:32:02.687Z,99190.88
2022-12-29T03:34:29.519Z,99196.00
2022-12-29T03:37:00.181Z,99179.03
2022-12-29T03:39:27.629Z,99177.66
2022-12-29T03:42:00.993Z,99169.81
2022-12-29T03:44:35.129Z,99171.44
2022-12-29T03:47:01.767Z,99178.19
2022-12-29T03:49:28.391Z,99158.75
2022-12-29T03:51:54.964Z,99167.69
2022-12-29T03:54:21.521Z,99183.31
2022-12-29T03:56:48.088Z,99183.31
2022-12-29T03:59:14.541Z,99186.03
2022-12-29T04:01:41.252Z,99152.59
2022-12-29T04:04:07.884Z,99158.50
2022-12-29T04:06:34.280Z,99153.94
2022-12-29T04:09:00.862Z,99163.38
2022-12-29T04:11:32.860Z,99165.00
2022-12-29T04:13:59.830Z,99150.69
2022-12-29T04:16:26.288Z,99165.00
2022-12-29T04:18:52.772Z,99151.78
2022-12-29T04:21:19.328Z,99160.16
2022-12-29T04:23:45.866Z,99166.34
2022-12-29T04:26:12.469Z,99170.41
2022-12-29T04:28:38.953Z,99166.63
2022-12-29T04:31:05.965Z,99169.84
2022-12-29T04:33:32.435Z,99177.44
2022-12-29T04:35:58.873Z,99169.88
2022-12-29T04:38:25.386Z,99161.25
2022-12-29T04:40:52.471Z,99160.16
2022-12-29T04:43:23.323Z,99160.69
2022-12-29T04:45:49.806Z,99164.75
2022-12-29T04:48:16.788Z,99165.53
2022-12-29T04:50:44.057Z,99157.19
2022-12-29T04:53:10.796Z,99162.31
2022-12-29T04:55:37.242Z,99150.44
2022-12-29T04:58:03.772Z,99151.53
2022-12-29T05:00:30.336Z,99150.16
2022-12-29T05:02:56.997Z,99150.44
2022-12-29T05:05:23.693Z,99147.22
2022-12-29T05:39:08.822Z,99147.19
2022-12-29T05:41:35.448Z,99142.31
2022-12-29T05:44:02.464Z,99139.09
2022-12-29T05:46:29.145Z,99133.41
2022-12-29T05:48:55.731Z,99132.06
2022-12-29T05:51:22.196Z,99143.13
2022-12-29T05:53:48.633Z,99124.47
2022-12-29T05:56:15.140Z,99124.47
2022-12-29T05:58:41.525Z,99146.63
2022-12-29T06:01:08.064Z,99109.38
2022-12-29T06:03:34.588Z,99116.38
2022-12-29T06:06:01.143Z,99115.06
2022-12-29T06:08:27.544Z,99131.25
2022-12-29T06:10:54.046Z,99128.00
2022-12-29T06:13:20.587Z,99126.09
2022-12-29T06:15:49.301Z,99126.66
2022-12-29T06:18:19.889Z,99107.75
2022-12-29T06:20:47.073Z,99113.16
2022-12-29T06:23:14.289Z,99107.75
2022-12-29T06:25:41.363Z,99107.75
2022-12-29T06:28:07.902Z,99102.34
2022-12-29T06:30:34.637Z,99120.72
2022-12-29T06:33:01.108Z,99102.91
2022-12-29T06:35:27.810Z,99152.59
2022-12-29T06:37:54.289Z,99119.63
2022-12-29T06:40:20.795Z,99124.22
2022-12-29T06:42:47.267Z,99107.19
2022-12-29T06:45:13.680Z,99104.50
2022-12-29T06:47:40.130Z,99103.97
2022-12-29T06:50:06.999Z,99142.31
2022-12-29T06:52:33.521Z,99099.63
2022-12-29T06:55:00.306Z,99114.22
2022-12-29T06:57:27.665Z,99090.97
2022-12-29T06:59:56.778Z,99094.47
2022-12-29T07:02:23.739Z,99103.69
2022-12-29T07:04:50.245Z,99092.03
2022-12-29T07:07:17.141Z,99112.28
2022-12-29T07:09:43.898Z,99120.69
2022-12-29T07:12:10.341Z,99112.03
2022-12-29T07:14:42.997Z,99118.53
2022-12-29T07:17:10.200Z,99126.34
2022-12-29T07:19:36.812Z,99110.41
2022-12-29T07:22:03.352Z,99106.06
2022-12-29T07:24:30.900Z,99113.34
2022-12-29T07:26:57.455Z,99102.53
2022-12-29T07:29:23.964Z,99110.66
2022-12-29T07:31:50.461Z,99125.50
2022-12-29T07:34:16.979Z,99120.94
2022-12-29T07:36:43.753Z,99126.56
2022-12-29T07:39:10.319Z,99119.03
2022-12-29T07:41:36.754Z,99130.13
2022-12-29T07:44:03.213Z,99127.13
2022-12-29T07:46:55.433Z,99130.34
2022-12-29T07:49:16.104Z,99133.06
2022-12-29T07:51:42.516Z,99134.94
2022-12-29T07:54:09.882Z,99166.03
2022-12-29T07:56:36.430Z,99144.97
2022-12-29T07:59:02.836Z,99148.72
2022-12-29T08:01:29.400Z,99121.16
2022-12-29T08:03:57.771Z,99137.91
2022-12-29T08:06:24.482Z,99157.34
2022-12-29T08:08:50.937Z,99162.75
2022-12-29T08:11:19.191Z,99166.00
2022-12-29T08:13:45.647Z,99162.47
2022-12-29T08:16:12.125Z,99172.44
2022-12-29T08:18:38.987Z,99172.19
2022-12-29T08:21:05.574Z,99166.00
2022-12-29T08:23:32.323Z,99170.81
2022-12-29T08:26:03.910Z,99173.00
2022-12-29T08:28:32.096Z,99181.91
2022-12-29T08:30:59.362Z,99182.16
2022-12-29T08:33:25.897Z,99198.94
2022-12-29T08:35:52.306Z,99184.59
2022-12-29T08:38:19.086Z,99182.16
2022-12-29T08:40:45.617Z,99175.16
2022-12-29T08:43:13.724Z,99183.78
2022-12-29T08:45:43.483Z,99184.88
2022-12-29T08:48:09.977Z,99194.59
2022-12-29T08:50:36.445Z,99182.16
2022-12-29T08:53:02.836Z,99216.78
2022-12-29T08:55:29.487Z,99184.59
2022-12-29T08:57:55.933Z,99221.09
2022-12-29T09:00:22.860Z,99211.09
2022-12-29T09:02:49.575Z,99211.88
2022-12-29T09:05:16.281Z,99220.56
2022-12-29T09:07:43.085Z,99225.69
2022-12-29T09:10:09.541Z,99217.84
2022-12-29T09:12:36.873Z,99221.38
2022-12-29T09:15:03.571Z,99231.66
2022-12-29T09:17:43.455Z,99215.72
2022-12-29T09:20:10.428Z,99219.50
2022-12-29T09:22:37.570Z,99228.69
2022-12-29T09:25:04.634Z,99240.31
2022-12-29T09:27:31.343Z,99237.06
2022-12-29T09:29:57.804Z,99215.72
2022-12-29T09:32:26.458Z,99223.28
2022-12-29T09:34:55.039Z,99237.91
2022-12-29T09:37:22.518Z,99228.69
2022-12-29T09:39:54.061Z,99215.44
2022-12-29T09:42:33.409Z,99227.88
2022-12-29T09:45:17.696Z,99209.81
2022-12-29T09:47:45.014Z,99213.81
2022-12-29T09:50:28.169Z,99220.56
2022-12-29T09:53:00.782Z,99224.91
2022-12-29T09:55:32.607Z,99237.91
2022-12-29T09:58:02.069Z,99227.63
2022-12-29T10:00:39.796Z,99218.44
2022-12-29T10:03:16.680Z,99231.94
2022-12-29T10:05:54.108Z,99220.06
2022-12-29T10:08:38.787Z,99233.81
2022-12-29T10:11:24.175Z,99220.56
2022-12-29T10:13:50.755Z,99225.97
2022-12-29T10:16:26.152Z,99221.63
2022-12-29T10:18:55.612Z,99220.00
2022-12-29T10:21:35.167Z,99214.84
2022-12-29T10:24:03.339Z,99215.63
2022-12-29T10:26:32.660Z,99222.94
2022-12-29T10:29:15.789Z,99259.16
2022-12-29T10:31:45.047Z,99250.75
2022-12-29T10:34:17.199Z,99221.28
2022-12-29T10:36:48.416Z,99244.28
2022-12-29T10:39:27.833Z,99233.47
2022-12-29T10:41:58.760Z,99221.00
2022-12-29T10:44:28.419Z,99244.28
2022-12-29T10:47:03.646Z,99237.47
2022-12-29T10:49:31.466Z,99224.75
2022-12-29T10:51:59.575Z,99213.38
2022-12-29T10:54:33.896Z,99223.63
2022-12-29T10:57:05.411Z,99226.28
2022-12-29T10:59:33.923Z,99224.66
2022-12-29T11:02:13.070Z,99232.78
2022-12-29T11:05:04.138Z,99243.59
2022-12-29T11:07:31.354Z,99238.13
2022-12-29T11:10:17.123Z,99244.59
2022-12-29T11:12:55.161Z,99238.38
2022-12-29T11:15:21.619Z,99259.22
2022-12-29T11:17:57.178Z,99254.88
2022-12-29T11:20:38.550Z,99244.59
2022-12-29T11:23:06.889Z,99268.72
2022-12-29T11:25:33.380Z,99263.31
2022-12-29T11:27:59.915Z,99254.97
2022-12-29T11:30:28.431Z,99269.03
2022-12-29T11:32:55.683Z,99263.38
2022-12-29T11:35:40.585Z,99285.84
2022-12-29T11:38:07.691Z,99302.13
2022-12-29T11:40:39.066Z,99291.84
2022-12-29T11:43:06.105Z,99281.09
2022-12-29T11:45:36.569Z,99299.22
2022-12-29T11:48:13.380Z,99292.72
2022-12-29T11:50:44.017Z,99309.50
2022-12-29T11:53:22.847Z,99304.34
2022-12-29T11:55:54.240Z,99302.22
2022-12-29T11:58:20.749Z,99306.53
2022-12-29T12:00:48.409Z,99300.59
2022-12-29T12:03:18.792Z,99299.25
2022-12-29T12:05:55.059Z,99306.00
2022-12-29T12:08:40.126Z,99293.84
2022-12-29T12:11:12.641Z,99293.03
2022-12-29T12:13:57.946Z,99306.53
2022-12-29T12:16:29.477Z,99287.63
2022-12-29T12:18:58.438Z,99297.34
2022-12-29T12:21:45.405Z,99287.34
2022-12-29T12:24:31.612Z,99296.53
2022-12-29T12:27:03.447Z,99298.44
2022-12-29T12:29:35.410Z,99313.56
2022-12-29T12:32:02.004Z,99301.94
2022-12-29T12:34:34.954Z,99290.31
2022-12-29T12:37:01.421Z,99303.03
2022-12-29T12:39:35.024Z,99292.22
2022-12-29T12:42:26.080Z,99289.75
2022-12-29T12:45:27.865Z,99300.06
2022-12-29T12:47:54.340Z,99295.72
2022-12-29T12:50:23.851Z,99298.69
2022-12-29T12:53:09.222Z,99302.22
2022-12-29T12:55:44.959Z,99300.59
2022-12-29T12:58:19.347Z,99306.00
2022-12-29T13:00:58.168Z,99300.03
2022-12-29T13:03:43.584Z,99313.28
2022-12-29T13:06:36.347Z,99309.22
2022-12-29T13:09:15.212Z,99313.81
2022-12-29T13:12:00.512Z,99313.81
2022-12-29T13:14:36.124Z,99309.78
2022-12-29T13:17:05.365Z,99327.88
2022-12-29T13:19:35.674Z,99322.75
2022-12-29T13:22:17.370Z,99312.19
2022-12-29T13:24:49.997Z,99318.94
2022-12-29T13:27:16.600Z,99317.34
2022-12-29T13:29:43.063Z,99311.13
2022-12-29T13:32:28.473Z,99307.88
2022-12-29T13:35:08.654Z,99316.25
2022-12-29T13:37:37.221Z,99320.06
2022-12-29T13:40:06.321Z,99320.31
2022-12-29T13:42:33.146Z,99331.66
2022-12-29T13:45:15.075Z,99331.41
2022-12-29T13:47:43.319Z,99353.28
2022-12-29T13:50:15.234Z,99355.16
2022-12-29T13:52:50.417Z,99367.59
2022-12-29T13:55:24.287Z,99365.97
2022-12-29T13:57:56.720Z,99365.44
2022-12-29T14:00:24.542Z,99372.47
2022-12-29T14:03:03.284Z,99381.66
2022-12-29T14:05:31.597Z,99388.13
2022-12-29T14:08:03.089Z,99388.66
2022-12-29T14:10:34.432Z,99382.44
2022-12-29T14:13:03.300Z,99404.34
2022-12-29T14:15:29.864Z,99406.50
2022-12-29T14:18:11.492Z,99413.53
2022-12-29T14:20:39.092Z,99396.78
2022-12-29T14:23:11.384Z,99409.72
2022-12-29T14:25:57.716Z,99404.91
2022-12-29T14:28:28.655Z,99417.81
2022-12-29T14:30:56.354Z,99430.28
2022-12-29T14:33:24.989Z,99427.81
2022-12-29T14:35:53.298Z,99424.88
2022-12-29T14:38:23.100Z,99416.75
2022-12-29T14:40:50.569Z,99454.84
2022-12-29T14:43:22.773Z,99425.41
2022-12-29T14:45:54.039Z,99432.44
2022-12-29T14:48:30.878Z,99426.50
2022-12-29T14:50:57.421Z,99445.41
2022-12-29T14:53:44.041Z,99429.72
2022-12-29T14:56:12.043Z,99484.50
2022-12-29T14:59:02.713Z,99425.13
2022-12-29T15:01:45.615Z,99458.91
2022-12-29T15:04:20.580Z,99428.63
2022-12-29T15:06:47.525Z,99454.56
2022-12-29T15:09:21.492Z,99454.53
2022-12-29T15:11:53.104Z,99470.72
2022-12-29T15:14:33.841Z,99461.00
2022-12-29T15:17:02.024Z,99456.69
2022-12-29T15:19:29.258Z,99441.31
2022-12-29T15:21:56.614Z,99444.78
2022-12-29T15:24:23.258Z,99441.53
2022-12-29T15:26:54.439Z,99446.97
2022-12-29T15:29:29.897Z,99455.31
2022-12-29T15:31:56.728Z,99459.25
2022-12-29T15:34:23.509Z,99479.25
2022-12-29T15:36:51.378Z,99489.25
2022-12-29T15:39:21.527Z,99478.25
2022-12-29T15:42:01.136Z,99471.78
2022-12-29T15:44:30.782Z,99463.09
2022-12-29T15:46:57.425Z,99472.25
2022-12-29T15:49:31.874Z,99478.25
2022-12-29T15:51:59.113Z,99479.31
2022-12-29T15:54:27.457Z,99482.50
2022-12-29T15:56:54.022Z,99495.44
2022-12-29T15:59:29.724Z,99486.28
2022-12-29T16:01:57.315Z,99482.78
2022-12-29T16:04:25.116Z,99486.81
2022-12-29T16:06:56.749Z,99493.56
2022-12-29T16:09:41.910Z,99495.38
2022-12-29T16:12:28.678Z,99503.13
2022-12-29T16:15:02.617Z,99501.81
2022-12-29T16:17:30.629Z,99505.88
2022-12-29T16:20:01.630Z,99533.69
2022-12-29T16:22:35.820Z,99510.69
2022-12-29T16:25:05.221Z,99531.44
2022-12-29T16:27:39.825Z,99506.06
2022-12-29T16:30:33.135Z,99519.31
2022-12-29T16:33:01.445Z,99511.94
2022-12-29T16:35:28.957Z,99515.69
2022-12-29T16:38:14.640Z,99524.59
2022-12-29T16:40:50.895Z,99521.34
2022-12-29T16:43:22.033Z,99515.69
2022-12-29T16:45:48.647Z,99520.47
2022-12-29T16:48:15.140Z,99515.91
2022-12-29T16:50:43.415Z,99522.34
2022-12-29T16:53:29.413Z,99518.25
2022-12-29T16:55:56.698Z,99508.56
2022-12-29T16:58:25.426Z,99518.81
2022-12-29T17:00:55.103Z,99524.44
2022-12-29T17:03:21.781Z,99529.84
2022-12-29T17:05:52.686Z,99523.63
2022-12-29T17:08:25.081Z,99514.47
2022-12-29T17:11:14.923Z,99522.56
2022-12-29T17:13:41.881Z,99523.63
2022-12-29T17:16:10.903Z,99513.66
2022-12-29T17:18:37.558Z,99517.19
2022-12-29T17:21:04.183Z,99517.72
2022-12-29T17:23:32.130Z,99524.16
2022-12-29T17:25:58.700Z,99510.72
2022-12-29T17:28:27.428Z,99525.00
2022-12-29T17:30:56.100Z,99524.75
2022-12-29T17:33:22.721Z,99528.00
2022-12-29T17:35:53.376Z,99526.06
2022-12-29T17:38:26.731Z,99529.34
2022-12-29T17:40:53.417Z,99533.41
2022-12-29T17:43:20.404Z,99532.56
2022-12-29T17:45:54.205Z,99529.66
2022-12-29T17:48:21.199Z,99532.31
2022-12-29T17:50:48.771Z,99528.50
2022-12-29T17:53:16.962Z,99527.97
2022-12-29T17:55:43.552Z,99522.00
2022-12-29T17:58:20.643Z,99525.81
2022-12-29T18:00:48.245Z,99532.31
2022-12-29T18:03:15.988Z,99519.03
2022-12-29T18:05:42.781Z,99530.66
2022-12-29T18:08:10.479Z,99539.28
2022-12-29T18:10:36.972Z,99535.22
2022-12-29T18:13:03.865Z,99547.81
2022-12-29T18:15:32.147Z,99531.16
2022-12-29T18:18:00.401Z,99521.97
2022-12-29T18:20:28.307Z,99538.66
2022-12-29T18:22:54.803Z,99523.88
2022-12-29T18:25:24.112Z,99528.44
2022-12-29T18:27:50.687Z,99541.41
2022-12-29T18:30:17.297Z,99532.22
2022-12-29T18:32:43.828Z,99535.97
2022-12-29T18:35:17.249Z,99546.22
2022-12-29T18:37:43.733Z,99559.19
2022-12-29T18:40:12.781Z,99563.78
2022-12-29T18:42:39.764Z,99558.88
2022-12-29T18:45:19.815Z,99569.97
2022-12-29T18:47:46.395Z,99602.31
2022-12-29T18:50:13.453Z,99592.06
2022-12-29T18:52:40.519Z,99579.13
2022-12-29T18:55:18.781Z,99572.94
2022-12-29T18:57:45.239Z,99580.19
2022-12-29T19:00:12.797Z,99590.75
2022-12-29T19:02:39.396Z,99575.34
2022-12-29T19:05:26.197Z,99573.72
2022-12-29T19:07:53.270Z,99574.25
2022-12-29T19:10:20.475Z,99590.94
2022-12-29T19:12:47.143Z,99584.47
2022-12-29T19:15:22.897Z,99585.56
2022-12-29T19:18:08.239Z,99603.53
2022-12-29T19:20:38.391Z,99592.75
2022-12-29T19:23:06.417Z,99599.56
2022-12-29T19:25:33.055Z,99598.00
2022-12-29T19:28:00.399Z,99610.69
2022-12-29T19:30:27.840Z,99592.34
2022-12-29T19:32:55.392Z,99607.19
